createdAt,value
2018-05-31T00:01:30.095Z,40.80
2018-05-31T00:03:57.738Z,40.08
2018-05-31T00:06:25.330Z,45.10
2018-05-31T00:08:54.529Z,45.10
2018-05-31T00:11:22.080Z,44.10
2018-05-31T00:13:49.979Z,43.97
2018-05-31T00:16:18.741Z,44.80
2018-05-31T00:18:46.464Z,45.28
2018-05-31T00:21:14.051Z,45.42
2018-05-31T00:23:43.056Z,45.80
2018-05-31T00:26:10.618Z,45.85
2018-05-31T00:28:38.948Z,46.35
2018-05-31T00:31:07.470Z,47.55
2018-05-31T00:33:37.726Z,46.28
2018-05-31T00:36:06.471Z,46.78
2018-05-31T00:38:34.063Z,46.90
2018-05-31T00:41:02.996Z,46.90
2018-05-31T00:43:30.971Z,47.92
2018-05-31T00:45:58.607Z,51.65
2018-05-31T00:48:26.163Z,50.88
2018-05-31T00:50:54.762Z,51.22
2018-05-31T00:53:23.039Z,51.55
2018-05-31T00:56:03.188Z,50.15
2018-05-31T00:58:32.897Z,53.17
2018-05-31T01:01:01.472Z,52.35
2018-05-31T01:03:29.875Z,51.35
2018-05-31T01:05:58.691Z,47.25
2018-05-31T01:08:28.675Z,48.38
2018-05-31T01:10:57.207Z,48.95
2018-05-31T01:13:25.368Z,47.75
2018-05-31T01:15:53.731Z,52.53
2018-05-31T01:18:21.559Z,51.37
2018-05-31T01:20:49.531Z,51.88
2018-05-31T01:23:17.980Z,49.10
2018-05-31T01:25:46.671Z,51.33
2018-05-31T01:28:14.212Z,52.33
2018-05-31T01:30:41.991Z,50.03
2018-05-31T01:33:09.582Z,50.72
2018-05-31T01:35:37.172Z,51.40
2018-05-31T01:38:16.558Z,52.28
2018-05-31T01:40:44.116Z,51.35
2018-05-31T01:43:11.744Z,51.53
2018-05-31T01:45:39.701Z,52.72
2018-05-31T01:48:07.746Z,52.45
2018-05-31T01:50:36.230Z,54.05
2018-05-31T01:53:03.838Z,55.45
2018-05-31T01:55:32.311Z,52.83
2018-05-31T01:58:00.635Z,53.63
2018-05-31T02:00:28.929Z,53.00
2018-05-31T02:02:57.796Z,52.42
2018-05-31T02:05:25.585Z,52.42
2018-05-31T02:07:53.185Z,53.25
2018-05-31T02:10:20.731Z,55.92
2018-05-31T02:12:48.878Z,52.40
2018-05-31T02:15:17.879Z,54.15
2018-05-31T02:17:46.358Z,52.92
2018-05-31T02:20:14.199Z,54.10
2018-05-31T02:22:41.820Z,52.95
2018-05-31T02:25:10.174Z,54.38
2018-05-31T02:27:37.791Z,54.75
2018-05-31T02:30:06.627Z,55.25
2018-05-31T02:32:35.295Z,55.63
2018-05-31T02:35:02.983Z,56.53
2018-05-31T02:37:31.369Z,54.47
2018-05-31T02:39:59.739Z,56.17
2018-05-31T02:42:27.386Z,56.72
2018-05-31T02:44:54.941Z,54.45
2018-05-31T02:47:22.826Z,54.28
2018-05-31T02:49:51.183Z,54.28
2018-05-31T02:52:19.603Z,55.72
2018-05-31T02:54:47.167Z,55.15
2018-05-31T02:57:14.750Z,54.55
2018-05-31T02:59:42.303Z,55.28
2018-05-31T03:02:09.835Z,54.15
2018-05-31T03:04:37.369Z,55.25
2018-05-31T03:07:04.939Z,55.10
2018-05-31T03:09:33.232Z,55.10
2018-05-31T03:12:01.110Z,54.55
2018-05-31T03:14:28.730Z,56.75
2018-05-31T03:16:56.655Z,55.17
2018-05-31T03:19:24.520Z,54.40
2018-05-31T03:21:53.099Z,55.90
2018-05-31T03:24:20.922Z,53.25
2018-05-31T03:26:48.840Z,54.30
2018-05-31T03:29:17.233Z,53.38
2018-05-31T03:31:44.823Z,52.47
2018-05-31T03:34:12.361Z,52.33
2018-05-31T03:36:39.950Z,52.28
2018-05-31T03:39:08.647Z,52.45
2018-05-31T03:41:36.480Z,50.72
2018-05-31T03:44:06.993Z,52.17
2018-05-31T03:46:35.683Z,51.17
2018-05-31T03:49:05.267Z,52.58
2018-05-31T03:51:32.878Z,53.47
2018-05-31T03:54:00.670Z,52.75
2018-05-31T03:56:29.864Z,52.13
2018-05-31T03:58:58.999Z,51.17
2018-05-31T04:01:28.614Z,51.00
2018-05-31T04:03:56.782Z,49.88
2018-05-31T04:06:25.107Z,51.25
2018-05-31T04:08:52.687Z,50.00
2018-05-31T04:11:20.221Z,50.03
2018-05-31T04:13:49.328Z,50.60
2018-05-31T04:16:17.202Z,49.22
2018-05-31T04:18:44.917Z,47.90
2018-05-31T04:21:12.499Z,48.10
2018-05-31T04:23:40.922Z,49.28
2018-05-31T04:26:08.695Z,44.17
2018-05-31T04:28:36.564Z,46.75
2018-05-31T04:31:04.225Z,47.22
2018-05-31T04:33:32.081Z,48.63
2018-05-31T04:35:59.638Z,47.40
2018-05-31T04:38:28.459Z,47.30
2018-05-31T04:40:56.004Z,47.42
2018-05-31T04:43:24.358Z,45.63
2018-05-31T04:45:52.023Z,44.72
2018-05-31T04:48:20.542Z,44.50
2018-05-31T04:50:49.123Z,45.83
2018-05-31T04:53:16.711Z,44.03
2018-05-31T04:55:45.903Z,44.00
2018-05-31T04:58:14.216Z,42.53
2018-05-31T05:00:41.785Z,44.08
2018-05-31T05:03:10.906Z,44.08
2018-05-31T05:05:38.579Z,43.80
2018-05-31T05:08:06.124Z,42.95
2018-05-31T05:10:34.811Z,42.25
2018-05-31T05:13:02.719Z,43.05
2018-05-31T05:15:31.019Z,38.80
2018-05-31T05:17:59.698Z,39.97
2018-05-31T05:20:27.570Z,41.35
2018-05-31T05:22:55.147Z,39.70
2018-05-31T05:25:23.591Z,39.55
2018-05-31T05:27:52.104Z,39.78
2018-05-31T05:30:19.676Z,39.08
2018-05-31T05:32:48.143Z,38.35
2018-05-31T05:35:17.167Z,38.50
2018-05-31T05:37:46.975Z,36.85
2018-05-31T05:40:14.558Z,36.55
2018-05-31T05:42:42.250Z,35.75
2018-05-31T05:45:09.787Z,37.50
2018-05-31T05:47:38.488Z,37.45
2018-05-31T05:50:06.071Z,36.53
2018-05-31T05:52:34.524Z,35.80
2018-05-31T05:55:04.072Z,34.33
2018-05-31T05:57:32.138Z,34.58
2018-05-31T06:00:00.507Z,32.90
2018-05-31T06:02:29.791Z,31.90
2018-05-31T06:04:57.532Z,29.48
2018-05-31T06:07:25.099Z,29.20
2018-05-31T06:09:52.649Z,29.52
2018-05-31T06:12:20.541Z,29.20
2018-05-31T06:14:48.987Z,26.45
2018-05-31T06:17:16.591Z,27.70
2018-05-31T06:19:44.230Z,26.77
2018-05-31T06:22:13.626Z,24.83
2018-05-31T06:24:42.128Z,23.05
2018-05-31T06:27:09.723Z,22.13
2018-05-31T06:29:37.279Z,21.20
2018-05-31T06:32:04.812Z,20.58
2018-05-31T06:34:33.106Z,20.30
2018-05-31T06:37:00.623Z,20.48
2018-05-31T06:39:29.595Z,20.90
2018-05-31T06:41:58.963Z,19.50
2018-05-31T06:44:27.068Z,19.75
2018-05-31T06:46:55.415Z,19.90
2018-05-31T06:49:22.939Z,19.23
2018-05-31T06:51:50.465Z,20.17
2018-05-31T06:54:18.038Z,19.05
2018-05-31T06:56:45.531Z,18.52
2018-05-31T06:59:13.064Z,18.27
2018-05-31T07:01:40.988Z,17.23
2018-05-31T07:04:08.536Z,17.27
2018-05-31T07:06:36.063Z,15.50
2018-05-31T07:09:04.111Z,15.75
2018-05-31T07:11:32.059Z,15.85
2018-05-31T07:13:59.578Z,16.12
2018-05-31T07:16:27.211Z,16.65
2018-05-31T07:18:55.133Z,17.70
2018-05-31T07:21:22.676Z,17.33
2018-05-31T07:23:50.193Z,17.60
2018-05-31T07:26:17.710Z,16.80
2018-05-31T07:28:45.236Z,17.10
2018-05-31T07:31:13.208Z,17.90
2018-05-31T07:33:40.783Z,16.10
2018-05-31T07:36:09.183Z,15.27
2018-05-31T07:38:36.924Z,16.27
2018-05-31T07:41:04.695Z,16.67
2018-05-31T07:43:32.803Z,18.42
2018-05-31T07:46:04.444Z,15.93
2018-05-31T07:48:32.163Z,19.33
2018-05-31T07:50:59.703Z,18.30
2018-05-31T07:53:29.293Z,17.77
2018-05-31T07:55:58.017Z,16.17
2018-05-31T07:58:27.271Z,18.05
2018-05-31T08:00:55.864Z,18.00
2018-05-31T08:03:24.344Z,17.60
2018-05-31T08:05:52.779Z,17.87
2018-05-31T08:08:20.315Z,17.55
2018-05-31T08:10:48.343Z,17.25
2018-05-31T08:13:15.867Z,16.27
2018-05-31T08:15:43.399Z,18.42
2018-05-31T08:18:10.925Z,16.33
2018-05-31T08:20:38.507Z,19.23
2018-05-31T08:23:06.019Z,18.60
2018-05-31T08:25:33.532Z,16.70
2018-05-31T08:28:01.072Z,18.48
2018-05-31T08:30:28.635Z,18.35
2018-05-31T08:32:56.155Z,18.25
2018-05-31T08:35:23.663Z,17.83
2018-05-31T08:37:51.190Z,18.37
2018-05-31T08:40:18.724Z,18.25
2018-05-31T08:42:46.531Z,18.65
2018-05-31T08:45:14.051Z,17.65
2018-05-31T08:47:41.576Z,16.48
2018-05-31T08:50:09.090Z,16.87
2018-05-31T08:52:36.612Z,17.00
2018-05-31T08:55:04.139Z,17.48
2018-05-31T08:57:31.662Z,16.20
2018-05-31T08:59:59.472Z,15.40
2018-05-31T09:02:26.998Z,15.35
2018-05-31T09:04:54.517Z,15.45
2018-05-31T09:07:22.032Z,14.30
2018-05-31T09:09:49.555Z,14.27
2018-05-31T09:12:17.074Z,14.10
2018-05-31T09:14:44.606Z,11.93
2018-05-31T09:17:12.138Z,14.43
2018-05-31T09:19:40.440Z,15.40
2018-05-31T09:22:07.987Z,14.00
2018-05-31T09:24:35.516Z,13.23
2018-05-31T09:27:03.051Z,12.05
2018-05-31T09:29:30.603Z,13.15
2018-05-31T09:31:58.479Z,12.80
2018-05-31T09:34:26.010Z,12.82
2018-05-31T09:36:54.205Z,13.13
2018-05-31T09:39:21.763Z,11.52
2018-05-31T09:41:49.353Z,12.05
2018-05-31T09:44:16.898Z,11.35
2018-05-31T09:46:45.182Z,12.98
2018-05-31T09:49:12.717Z,9.65
2018-05-31T09:51:40.253Z,12.65
2018-05-31T09:54:07.804Z,9.25
2018-05-31T09:56:35.339Z,9.35
2018-05-31T09:59:02.884Z,9.27
2018-05-31T10:01:30.422Z,10.13
2018-05-31T10:03:57.943Z,9.55
2018-05-31T10:06:25.458Z,10.20
2018-05-31T10:08:53.003Z,10.57
2018-05-31T10:11:20.521Z,9.02
2018-05-31T10:13:48.050Z,9.82
2018-05-31T10:16:15.561Z,8.57
2018-05-31T10:18:43.075Z,8.35
2018-05-31T10:21:10.591Z,9.40
2018-05-31T10:23:38.112Z,9.80
2018-05-31T10:26:05.623Z,10.25
2018-05-31T10:28:33.135Z,9.60
2018-05-31T10:31:00.681Z,9.43
2018-05-31T10:33:28.210Z,9.80
2018-05-31T10:35:55.725Z,9.43
2018-05-31T10:38:23.268Z,9.80
2018-05-31T10:40:50.787Z,10.32
2018-05-31T10:43:18.300Z,10.70
2018-05-31T10:45:45.892Z,10.88
2018-05-31T10:48:13.408Z,10.10
2018-05-31T10:50:40.929Z,10.18
2018-05-31T10:53:09.215Z,9.80
2018-05-31T10:55:36.736Z,10.52
2018-05-31T10:58:04.255Z,10.05
2018-05-31T11:00:31.778Z,10.82
2018-05-31T11:02:59.299Z,10.40
2018-05-31T11:05:26.813Z,11.98
2018-05-31T11:07:54.339Z,10.85
2018-05-31T11:10:21.854Z,11.40
2018-05-31T11:12:49.379Z,11.52
2018-05-31T11:15:16.919Z,11.82
2018-05-31T11:17:44.436Z,11.68
2018-05-31T11:20:12.000Z,11.38
2018-05-31T11:22:39.832Z,11.23
2018-05-31T11:25:07.394Z,11.12
2018-05-31T11:27:34.915Z,13.70
2018-05-31T11:30:02.491Z,11.80
2018-05-31T11:32:30.928Z,10.80
2018-05-31T11:34:58.452Z,9.88
2018-05-31T11:37:25.971Z,8.98
2018-05-31T11:39:53.494Z,10.02
2018-05-31T11:42:21.032Z,10.70
2018-05-31T11:44:49.347Z,11.32
2018-05-31T11:47:16.867Z,11.55
2018-05-31T11:49:44.383Z,9.90
2018-05-31T11:52:11.915Z,13.62
2018-05-31T11:54:39.452Z,10.65
2018-05-31T11:57:06.970Z,11.82
2018-05-31T11:59:34.507Z,10.40
2018-05-31T12:02:02.044Z,11.93
2018-05-31T12:04:29.577Z,10.23
2018-05-31T12:06:57.113Z,10.10
2018-05-31T12:09:24.631Z,10.25
2018-05-31T12:11:52.952Z,10.23
2018-05-31T12:14:20.462Z,10.05
2018-05-31T12:16:47.979Z,9.93
2018-05-31T12:19:15.506Z,10.23
2018-05-31T12:21:43.041Z,9.88
2018-05-31T12:24:10.576Z,9.73
2018-05-31T12:26:38.152Z,9.23
2018-05-31T12:29:05.664Z,9.38
2018-05-31T12:31:33.178Z,8.98
2018-05-31T12:34:00.695Z,8.48
2018-05-31T12:36:28.212Z,8.30
2018-05-31T12:38:56.499Z,9.45
2018-05-31T12:41:24.025Z,8.35
2018-05-31T12:43:51.543Z,8.95
2018-05-31T12:46:19.063Z,8.25
2018-05-31T12:48:47.339Z,8.52
2018-05-31T12:51:14.851Z,11.52
2018-05-31T12:53:42.379Z,9.77
2018-05-31T12:56:09.912Z,9.48
2018-05-31T12:58:38.212Z,9.15
2018-05-31T13:01:05.731Z,9.02
2018-05-31T13:03:33.255Z,11.07
2018-05-31T13:06:00.839Z,10.32
2018-05-31T13:08:28.346Z,10.27
2018-05-31T13:10:55.897Z,10.02
2018-05-31T13:13:23.422Z,10.27
2018-05-31T13:15:50.944Z,10.35
2018-05-31T13:18:18.699Z,10.70
2018-05-31T13:20:46.220Z,11.18
2018-05-31T13:23:13.753Z,10.60
2018-05-31T13:25:41.294Z,10.88
2018-05-31T13:28:09.431Z,11.00
2018-05-31T13:30:37.726Z,11.30
2018-05-31T13:33:05.271Z,10.18
2018-05-31T13:35:32.794Z,10.93
2018-05-31T13:38:00.334Z,10.20
2018-05-31T13:40:27.854Z,10.95
2018-05-31T13:42:55.399Z,9.95
2018-05-31T13:45:22.939Z,10.32
2018-05-31T13:47:50.494Z,9.35
2018-05-31T13:50:18.017Z,10.40
2018-05-31T13:52:45.581Z,9.68
2018-05-31T13:55:13.117Z,9.50
2018-05-31T13:57:40.632Z,9.85
2018-05-31T14:00:08.161Z,9.32
2018-05-31T14:02:35.684Z,9.13
2018-05-31T14:05:03.199Z,9.43
2018-05-31T14:07:30.723Z,8.93
2018-05-31T14:09:59.048Z,9.45
2018-05-31T14:12:26.608Z,10.10
2018-05-31T14:14:54.146Z,10.88
2018-05-31T14:17:22.584Z,9.23
2018-05-31T14:19:50.118Z,9.00
2018-05-31T14:22:17.635Z,9.68
2018-05-31T14:24:45.163Z,9.68
2018-05-31T14:27:12.699Z,10.15
2018-05-31T14:29:40.988Z,10.70
2018-05-31T14:32:08.528Z,10.48
2018-05-31T14:34:36.055Z,10.18
2018-05-31T14:37:03.579Z,11.25
2018-05-31T14:39:31.107Z,10.48
2018-05-31T14:41:58.658Z,10.90
2018-05-31T14:44:26.234Z,13.07
2018-05-31T14:46:53.791Z,13.07
2018-05-31T14:49:22.204Z,12.65
2018-05-31T14:51:50.943Z,11.52
2018-05-31T14:54:19.455Z,10.90
2018-05-31T14:56:47.947Z,10.65
2018-05-31T14:59:16.399Z,10.07
2018-05-31T15:01:44.639Z,10.57
2018-05-31T15:04:12.447Z,10.63
2018-05-31T15:06:39.970Z,10.38
2018-05-31T15:09:08.855Z,10.50
2018-05-31T15:11:36.375Z,10.73
2018-05-31T15:14:05.287Z,16.85
2018-05-31T15:16:32.811Z,15.75
2018-05-31T15:19:00.351Z,17.42
2018-05-31T15:21:28.107Z,18.50
2018-05-31T15:23:57.006Z,17.67
2018-05-31T15:26:24.555Z,17.12
2018-05-31T15:28:52.112Z,18.17
2018-05-31T15:31:22.464Z,16.98
2018-05-31T15:33:50.891Z,20.25
2018-05-31T15:36:19.287Z,20.77
2018-05-31T15:38:47.605Z,21.35
2018-05-31T15:41:16.181Z,19.85
2018-05-31T15:43:44.531Z,19.75
2018-05-31T15:46:12.295Z,19.77
2018-05-31T15:48:40.339Z,17.10
2018-05-31T15:51:08.776Z,18.80
2018-05-31T15:53:36.850Z,19.70
2018-05-31T15:56:04.641Z,18.73
2018-05-31T15:58:34.071Z,18.98
2018-05-31T16:01:02.766Z,17.95
2018-05-31T16:03:30.569Z,18.12
2018-05-31T16:05:58.095Z,18.33
2018-05-31T16:08:26.484Z,18.48
2018-05-31T16:10:55.731Z,18.27
2018-05-31T16:13:23.539Z,18.65
2018-05-31T16:15:51.880Z,16.77
2018-05-31T16:18:19.404Z,16.40
2018-05-31T16:20:46.972Z,14.98
2018-05-31T16:23:14.579Z,15.85
2018-05-31T16:25:43.053Z,14.30
2018-05-31T16:28:11.400Z,14.05
2018-05-31T16:30:38.959Z,14.35
2018-05-31T16:33:06.807Z,13.55
2018-05-31T16:35:35.850Z,13.95
2018-05-31T16:38:03.399Z,13.40
2018-05-31T16:40:30.947Z,14.15
2018-05-31T16:42:59.407Z,14.70
2018-05-31T16:45:26.959Z,11.88
2018-05-31T16:47:55.432Z,12.70
2018-05-31T16:50:22.975Z,11.57
2018-05-31T16:52:50.498Z,13.40
2018-05-31T16:55:18.020Z,11.32
2018-05-31T16:57:45.601Z,11.07
2018-05-31T17:00:13.975Z,11.73
2018-05-31T17:02:42.763Z,11.25
2018-05-31T17:05:10.311Z,11.02
2018-05-31T17:07:38.665Z,11.68
2018-05-31T17:10:06.191Z,11.75
2018-05-31T17:12:33.771Z,10.80
2018-05-31T17:15:01.696Z,11.63
2018-05-31T17:17:30.043Z,11.52
2018-05-31T17:19:57.566Z,11.73
2018-05-31T17:22:25.954Z,11.60
2018-05-31T17:24:53.524Z,12.93
2018-05-31T17:27:21.062Z,13.32
2018-05-31T17:29:48.599Z,12.68
2018-05-31T17:32:16.128Z,13.38
2018-05-31T17:34:44.438Z,13.88
2018-05-31T17:37:11.959Z,13.60
2018-05-31T17:39:39.482Z,14.32
2018-05-31T17:42:07.019Z,15.05
2018-05-31T17:44:34.553Z,14.60
2018-05-31T17:47:02.071Z,15.35
2018-05-31T17:49:29.587Z,15.70
2018-05-31T17:51:57.124Z,15.75
2018-05-31T17:54:24.661Z,16.17
2018-05-31T17:56:52.192Z,16.17
2018-05-31T17:59:19.746Z,16.77
2018-05-31T18:01:47.516Z,17.45
2018-05-31T18:04:15.041Z,16.83
2018-05-31T18:06:42.566Z,17.02
2018-05-31T18:09:10.082Z,17.67
2018-05-31T18:11:38.555Z,17.70
2018-05-31T18:14:06.108Z,18.77
2018-05-31T18:16:33.699Z,17.50
2018-05-31T18:19:02.028Z,18.80
2018-05-31T18:21:29.555Z,19.27
2018-05-31T18:23:58.718Z,18.92
2018-05-31T18:26:26.287Z,20.00
2018-05-31T18:28:54.899Z,20.00
2018-05-31T18:31:22.531Z,20.52
2018-05-31T18:33:52.175Z,20.88
2018-05-31T18:36:20.442Z,20.08
2018-05-31T18:38:49.519Z,20.70
2018-05-31T18:41:17.088Z,20.60
2018-05-31T18:43:44.615Z,21.55
2018-05-31T18:46:13.384Z,22.75
2018-05-31T18:48:41.817Z,21.83
2018-05-31T18:51:09.345Z,22.73
2018-05-31T18:53:37.219Z,21.98
2018-05-31T18:56:04.744Z,23.62
2018-05-31T18:58:32.269Z,23.60
2018-05-31T19:00:59.796Z,23.15
2018-05-31T19:03:28.082Z,24.08
2018-05-31T19:05:55.635Z,23.87
2018-05-31T19:08:23.159Z,22.45
2018-05-31T19:10:50.780Z,23.35
2018-05-31T19:13:23.968Z,23.12
2018-05-31T19:15:53.036Z,24.55
2018-05-31T19:18:26.564Z,25.27
2018-05-31T19:20:55.283Z,24.25
2018-05-31T19:23:23.615Z,24.27
2018-05-31T19:25:51.183Z,24.98
2018-05-31T19:28:19.923Z,26.02
2018-05-31T19:30:53.044Z,25.08
2018-05-31T19:33:22.968Z,25.20
2018-05-31T19:35:56.520Z,25.37
2018-05-31T19:38:25.111Z,25.05
2018-05-31T19:40:53.948Z,26.00
2018-05-31T19:43:28.771Z,27.98
2018-05-31T19:46:00.033Z,27.75
2018-05-31T19:48:28.972Z,27.35
2018-05-31T19:50:57.606Z,26.83
2018-05-31T19:53:32.331Z,26.02
2018-05-31T19:56:01.104Z,26.73
2018-05-31T19:58:34.526Z,27.40
2018-05-31T20:01:07.720Z,27.75
2018-05-31T20:03:36.059Z,27.55
2018-05-31T20:06:04.068Z,28.60
2018-05-31T20:08:33.672Z,28.85
2018-05-31T20:11:01.427Z,27.80
2018-05-31T20:13:30.091Z,28.27
2018-05-31T20:15:59.035Z,30.00
2018-05-31T20:18:27.324Z,27.25
2018-05-31T20:20:54.926Z,27.67
2018-05-31T20:23:23.258Z,27.30
2018-05-31T20:25:52.304Z,27.17
2018-05-31T20:28:21.437Z,29.83
2018-05-31T20:30:51.078Z,29.92
2018-05-31T20:33:18.595Z,29.10
2018-05-31T20:35:47.180Z,28.00
2018-05-31T20:38:15.696Z,27.87
2018-05-31T20:40:44.700Z,28.95
2018-05-31T20:43:13.498Z,29.85
2018-05-31T20:45:41.142Z,31.05
2018-05-31T20:48:08.815Z,30.52
2018-05-31T20:50:37.285Z,29.80
2018-05-31T20:53:05.969Z,30.95
2018-05-31T20:55:33.546Z,31.02
2018-05-31T20:58:01.067Z,29.63
2018-05-31T21:00:30.422Z,28.92
2018-05-31T21:02:57.947Z,31.48
2018-05-31T21:05:26.286Z,30.45
2018-05-31T21:07:54.631Z,30.80
2018-05-31T21:10:22.214Z,31.05
2018-05-31T21:12:50.341Z,30.33
2018-05-31T21:15:18.889Z,32.95
2018-05-31T21:17:47.339Z,31.23
2018-05-31T21:20:14.928Z,32.78
2018-05-31T21:22:43.345Z,33.63
2018-05-31T21:25:11.819Z,32.92
2018-05-31T21:27:40.148Z,35.42
2018-05-31T21:30:09.207Z,34.38
2018-05-31T21:32:37.380Z,34.28
2018-05-31T21:35:05.954Z,34.22
2018-05-31T21:37:34.976Z,34.88
2018-05-31T21:40:02.556Z,35.88
2018-05-31T21:42:30.366Z,36.00
2018-05-31T21:44:59.053Z,36.22
2018-05-31T21:47:28.159Z,36.00
2018-05-31T21:49:56.035Z,37.42
2018-05-31T21:52:25.261Z,37.75
2018-05-31T21:54:54.104Z,36.35
2018-05-31T21:57:23.513Z,37.03
2018-05-31T21:59:52.759Z,39.00
2018-05-31T22:02:21.916Z,38.35
2018-05-31T22:04:50.343Z,38.00
2018-05-31T22:07:18.652Z,40.45
2018-05-31T22:09:46.178Z,39.35
2018-05-31T22:12:13.712Z,37.92
2018-05-31T22:14:42.686Z,35.90
2018-05-31T22:17:11.999Z,33.95
2018-05-31T22:19:40.739Z,33.42
2018-05-31T22:22:10.028Z,39.00
2018-05-31T22:24:37.557Z,41.25
2018-05-31T22:27:05.668Z,40.78
2018-05-31T22:29:33.640Z,41.37
2018-05-31T22:32:01.221Z,41.25
2018-05-31T22:34:29.922Z,39.50
2018-05-31T22:36:58.122Z,42.50
2018-05-31T22:39:25.956Z,43.17
2018-05-31T22:41:53.584Z,42.62
2018-05-31T22:44:22.596Z,42.58
2018-05-31T22:46:50.208Z,43.42
2018-05-31T22:49:19.054Z,44.92
2018-05-31T22:51:48.094Z,40.20
2018-05-31T22:54:16.432Z,39.22
2018-05-31T22:56:44.063Z,39.08
2018-05-31T22:59:11.709Z,38.88
2018-05-31T23:01:40.068Z,38.25
2018-05-31T23:04:07.908Z,39.47
2018-05-31T23:06:35.811Z,40.97
2018-05-31T23:09:04.871Z,40.15
2018-05-31T23:11:32.455Z,39.10
2018-05-31T23:14:01.992Z,42.97
2018-05-31T23:16:29.875Z,44.22
2018-05-31T23:18:57.525Z,43.72
2018-05-31T23:21:26.687Z,43.55
2018-05-31T23:23:54.351Z,42.97
2018-05-31T23:26:22.807Z,43.03
2018-05-31T23:28:51.100Z,41.58
2018-05-31T23:31:19.317Z,42.60
2018-05-31T23:33:46.883Z,42.65
2018-05-31T23:36:15.290Z,42.08
2018-05-31T23:38:42.955Z,42.13
2018-05-31T23:41:10.544Z,42.25
2018-05-31T23:43:38.955Z,41.08
2018-05-31T23:46:08.120Z,42.95
2018-05-31T23:48:35.872Z,44.30
2018-05-31T23:51:03.435Z,43.28
2018-05-31T23:53:32.031Z,42.97
2018-05-31T23:55:59.590Z,42.88
2018-05-31T23:58:27.203Z,43.42
